createdAt,value
2023-10-30T00:00:09.594Z,99207.53
2023-10-30T00:02:37.647Z,99215.16
2023-10-30T00:05:05.502Z,99207.78
2023-10-30T00:07:32.933Z,99204.50
2023-10-30T00:10:00.678Z,99209.13
2023-10-30T00:12:28.122Z,99214.59
2023-10-30T00:14:55.625Z,99221.97
2023-10-30T00:17:23.306Z,99223.00
2023-10-30T00:19:51.300Z,99217.81
2023-10-30T00:22:18.758Z,99219.72
2023-10-30T00:24:46.632Z,99221.63
2023-10-30T00:27:14.430Z,99215.34
2023-10-30T00:29:42.057Z,99221.88
2023-10-30T00:32:09.827Z,99216.66
2023-10-30T00:34:37.242Z,99213.94
2023-10-30T00:37:04.830Z,99218.53
2023-10-30T00:39:33.709Z,99212.50
2023-10-30T00:42:01.484Z,99217.16
2023-10-30T00:44:29.063Z,99208.97
2023-10-30T00:46:56.846Z,99207.28
2023-10-30T00:49:24.295Z,99210.28
2023-10-30T00:51:51.723Z,99209.44
2023-10-30T00:54:19.517Z,99199.34
2023-10-30T00:56:47.000Z,99192.47
2023-10-30T00:59:14.450Z,99199.03
2023-10-30T01:01:42.252Z,99198.19
2023-10-30T01:04:10.082Z,99194.66
2023-10-30T01:06:37.731Z,99199.28
2023-10-30T01:09:05.492Z,99195.72
2023-10-30T01:11:33.005Z,99190.50
2023-10-30T01:14:00.442Z,99184.22
2023-10-30T01:16:28.220Z,99194.31
2023-10-30T01:18:55.707Z,99191.03
2023-10-30T01:21:23.179Z,99192.69
2023-10-30T01:23:50.880Z,99191.03
2023-10-30T01:26:18.472Z,99192.13
2023-10-30T01:28:45.936Z,99187.72
2023-10-30T01:31:13.778Z,99186.88
2023-10-30T01:33:41.290Z,99186.06
2023-10-30T01:36:09.175Z,99191.53
2023-10-30T01:38:37.055Z,99183.34
2023-10-30T01:41:06.382Z,99187.97
2023-10-30T01:43:34.073Z,99181.69
2023-10-30T01:46:01.852Z,99189.62
2023-10-30T01:48:33.587Z,99178.97
2023-10-30T01:51:01.716Z,99180.88
2023-10-30T01:53:30.618Z,99178.13
2023-10-30T01:55:58.057Z,99168.31
2023-10-30T01:58:26.202Z,99171.03
2023-10-30T02:00:55.008Z,99181.09
2023-10-30T02:03:22.846Z,99169.34
2023-10-30T02:05:51.862Z,99171.25
2023-10-30T02:08:19.309Z,99170.44
2023-10-30T02:10:48.716Z,99167.72
2023-10-30T02:13:16.535Z,99163.06
2023-10-30T02:15:44.066Z,99166.88
2023-10-30T02:18:12.563Z,99172.59
2023-10-30T02:20:40.596Z,99167.97
2023-10-30T02:23:08.044Z,99160.88
2023-10-30T02:25:35.709Z,99159.19
2023-10-30T02:28:03.909Z,99163.84
2023-10-30T02:30:31.482Z,99163.00
2023-10-30T02:32:59.082Z,99164.91
2023-10-30T02:35:28.099Z,99166.81
2023-10-30T02:37:55.603Z,99164.91
2023-10-30T02:40:23.303Z,99166.25
2023-10-30T02:42:51.042Z,99179.91
2023-10-30T02:45:18.582Z,99176.31
2023-10-30T02:47:46.127Z,99177.16
2023-10-30T02:50:13.940Z,99180.94
2023-10-30T02:52:41.413Z,99186.41
2023-10-30T02:55:10.347Z,99181.78
2023-10-30T02:57:38.176Z,99186.41
2023-10-30T03:00:07.894Z,99180.13
2023-10-30T03:02:37.616Z,99179.03
2023-10-30T03:05:06.254Z,99179.03
2023-10-30T03:07:33.868Z,99170.56
2023-10-30T03:10:01.399Z,99177.66
2023-10-30T03:12:29.234Z,99176.00
2023-10-30T03:14:56.724Z,99177.06
2023-10-30T03:17:24.179Z,99177.06
2023-10-30T03:19:52.055Z,99178.97
2023-10-30T03:22:20.070Z,99180.88
2023-10-30T03:24:47.751Z,99177.31
2023-10-30T03:27:15.554Z,99188.25
2023-10-30T03:29:43.017Z,99190.16
2023-10-30T03:32:10.459Z,99187.41
2023-10-30T03:34:38.589Z,99180.31
2023-10-30T03:37:06.049Z,99190.41
2023-10-30T03:39:33.847Z,99187.69
2023-10-30T03:42:01.713Z,99184.94
2023-10-30T03:44:30.457Z,99189.81
2023-10-30T03:46:58.008Z,99188.72
2023-10-30T03:49:25.856Z,99182.44
2023-10-30T03:51:53.357Z,99184.34
2023-10-30T03:54:20.826Z,99189.00
2023-10-30T03:56:48.854Z,99181.88
2023-10-30T03:59:19.410Z,99176.44
2023-10-30T04:01:46.907Z,99181.06
2023-10-30T04:04:14.820Z,99175.59
2023-10-30T04:06:42.388Z,99181.06
2023-10-30T04:09:09.956Z,99172.88
2023-10-30T04:11:37.778Z,99176.69
2023-10-30T04:14:05.221Z,99173.97
2023-10-30T04:16:32.903Z,99178.56
2023-10-30T04:19:00.680Z,99170.63
2023-10-30T04:21:28.236Z,99174.19
2023-10-30T04:23:55.996Z,99169.00
2023-10-30T04:26:23.863Z,99180.72
2023-10-30T04:28:51.306Z,99179.91
2023-10-30T04:31:18.825Z,99180.16
2023-10-30T04:33:46.605Z,99183.72
2023-10-30T04:36:14.502Z,99174.72
2023-10-30T04:38:41.992Z,99169.25
2023-10-30T04:41:09.680Z,99176.59
2023-10-30T04:43:38.609Z,99168.66
2023-10-30T04:46:06.146Z,99167.56
2023-10-30T04:48:34.431Z,99172.22
2023-10-30T04:51:01.997Z,99169.47
2023-10-30T04:53:30.901Z,99170.56
2023-10-30T04:55:58.838Z,99174.12
2023-10-30T04:58:26.354Z,99177.66
2023-10-30T05:00:53.830Z,99182.28
2023-10-30T05:03:21.665Z,99175.19
2023-10-30T05:05:49.224Z,99181.72
2023-10-30T05:08:18.807Z,99182.56
2023-10-30T05:10:46.590Z,99179.22
2023-10-30T05:13:14.048Z,99185.28
2023-10-30T05:15:41.585Z,99183.63
2023-10-30T05:18:09.441Z,99180.06
2023-10-30T05:20:36.947Z,99189.31
2023-10-30T05:23:04.397Z,99189.31
2023-10-30T05:25:42.500Z,99195.03
2023-10-30T05:28:10.967Z,99207.59
2023-10-30T05:30:39.082Z,99201.31
2023-10-30T05:33:06.752Z,99200.50
2023-10-30T05:35:34.236Z,99210.56
2023-10-30T05:38:02.005Z,99210.56
2023-10-30T05:40:29.543Z,99206.19
2023-10-30T05:42:56.976Z,99209.75
2023-10-30T05:45:24.765Z,99216.28
2023-10-30T05:47:52.366Z,99216.28
2023-10-30T05:50:19.875Z,99223.63
2023-10-30T05:52:47.621Z,99221.75
2023-10-30T05:55:15.075Z,99221.97
2023-10-30T05:57:46.272Z,99232.06
2023-10-30T06:00:15.142Z,99228.25
2023-10-30T06:02:43.213Z,99232.06
2023-10-30T06:05:16.878Z,99232.06
2023-10-30T06:07:44.776Z,99236.69
2023-10-30T06:10:12.338Z,99239.41
2023-10-30T06:12:40.248Z,99250.31
2023-10-30T06:15:08.620Z,99244.03
2023-10-30T06:17:36.463Z,99245.13
2023-10-30T06:20:04.926Z,99247.03
2023-10-30T06:22:33.263Z,99247.03
2023-10-30T06:25:01.799Z,99247.03
2023-10-30T06:27:29.527Z,99248.91
2023-10-30T06:29:57.298Z,99245.34
2023-10-30T06:32:24.795Z,99244.28
2023-10-30T06:34:52.302Z,99250.56
2023-10-30T06:37:21.113Z,99243.44
2023-10-30T06:39:48.723Z,99236.94
2023-10-30T06:42:16.301Z,99246.16
2023-10-30T06:44:44.186Z,99255.19
2023-10-30T06:47:11.671Z,99264.22
2023-10-30T06:49:41.493Z,99267.97
2023-10-30T06:52:09.337Z,99268.84
2023-10-30T06:54:37.015Z,99263.59
2023-10-30T06:57:04.505Z,99271.78
2023-10-30T06:59:32.320Z,99266.34
2023-10-30T07:02:00.517Z,99266.59
2023-10-30T07:04:28.044Z,99273.69
2023-10-30T07:06:56.045Z,99266.34
2023-10-30T07:09:23.511Z,99272.03
2023-10-30T07:11:50.969Z,99271.78
2023-10-30T07:14:18.940Z,99268.25
2023-10-30T07:17:00.682Z,99274.78
2023-10-30T07:19:32.361Z,99268.50
2023-10-30T07:21:59.905Z,99279.41
2023-10-30T07:24:27.412Z,99278.56
2023-10-30T07:26:56.164Z,99285.94
2023-10-30T07:29:23.613Z,99280.72
2023-10-30T07:31:51.056Z,99287.81
2023-10-30T07:34:18.764Z,99275.25
2023-10-30T07:36:46.216Z,99287.25
2023-10-30T07:39:13.673Z,99276.06
2023-10-30T07:41:41.434Z,99292.69
2023-10-30T07:44:10.568Z,99280.94
2023-10-30T07:46:38.079Z,99281.53
2023-10-30T07:49:07.451Z,99285.94
2023-10-30T07:51:35.185Z,99286.97
2023-10-30T07:54:02.634Z,99288.66
2023-10-30T07:56:30.354Z,99291.38
2023-10-30T07:58:57.900Z,99294.94
2023-10-30T08:01:25.825Z,99301.22
2023-10-30T08:03:53.721Z,99304.50
2023-10-30T08:06:21.261Z,99305.59
2023-10-30T08:08:49.300Z,99303.94
2023-10-30T08:11:17.271Z,99295.50
2023-10-30T08:13:44.806Z,99285.94
2023-10-30T08:16:12.265Z,99288.66
2023-10-30T08:18:40.080Z,99300.41
2023-10-30T08:21:08.617Z,99299.06
2023-10-30T08:23:38.161Z,99287.59
2023-10-30T08:26:06.996Z,99280.22
2023-10-30T08:28:34.572Z,99279.56
2023-10-30T08:31:02.116Z,99276.16
2023-10-30T08:33:30.088Z,99272.31
2023-10-30T08:35:57.865Z,99268.50
2023-10-30T08:38:25.360Z,99270.16
2023-10-30T08:40:53.085Z,99268.50
2023-10-30T08:43:20.647Z,99274.78
2023-10-30T08:45:48.162Z,99278.06
2023-10-30T08:48:19.234Z,99271.78
2023-10-30T08:50:47.541Z,99263.59
2023-10-30T08:53:16.614Z,99275.34
2023-10-30T08:55:44.351Z,99269.06
2023-10-30T08:58:11.870Z,99271.78
2023-10-30T09:00:39.425Z,99271.78
2023-10-30T09:03:07.504Z,99263.59
2023-10-30T09:05:35.811Z,99277.25
2023-10-30T09:08:03.424Z,99277.25
2023-10-30T09:10:33.710Z,99271.78
2023-10-30T09:13:01.395Z,99281.62
2023-10-30T09:15:29.138Z,99277.25
2023-10-30T09:17:57.049Z,99276.41
2023-10-30T09:20:24.581Z,99270.97
2023-10-30T09:22:52.068Z,99275.34
2023-10-30T09:25:19.959Z,99294.44
2023-10-30T09:27:48.939Z,99292.78
2023-10-30T09:30:16.893Z,99311.88
2023-10-30T09:32:44.642Z,99296.09
2023-10-30T09:35:12.092Z,99304.28
2023-10-30T09:37:40.477Z,99303.44
2023-10-30T09:40:08.718Z,99292.53
2023-10-30T09:42:36.329Z,99292.53
2023-10-30T09:45:05.329Z,99302.63
2023-10-30T09:47:33.125Z,99288.97
2023-10-30T09:50:00.606Z,99296.09
2023-10-30T09:52:29.045Z,99286.25
2023-10-30T09:54:59.159Z,99291.69
2023-10-30T09:57:28.259Z,99282.69
2023-10-30T09:59:57.721Z,99281.88
2023-10-30T10:02:25.724Z,99274.53
2023-10-30T10:04:53.519Z,99278.91
2023-10-30T10:07:21.006Z,99278.91
2023-10-30T10:10:04.240Z,99282.69
2023-10-30T10:12:34.649Z,99268.84
2023-10-30T10:15:08.081Z,99261.97
2023-10-30T10:17:49.957Z,99277.25
2023-10-30T10:20:18.426Z,99279.97
2023-10-30T10:22:46.129Z,99275.84
2023-10-30T10:25:16.850Z,99269.56
2023-10-30T10:27:44.441Z,99266.00
2023-10-30T10:30:12.350Z,99266.00
2023-10-30T10:32:39.822Z,99271.44
2023-10-30T10:35:07.613Z,99273.34
2023-10-30T10:37:35.967Z,99274.16
2023-10-30T10:40:06.840Z,99286.97
2023-10-30T10:42:34.993Z,99286.16
2023-10-30T10:45:03.277Z,99285.09
2023-10-30T10:47:31.052Z,99283.44
2023-10-30T10:49:58.974Z,99271.69
2023-10-30T10:52:27.571Z,99269.81
2023-10-30T10:55:06.462Z,99266.25
2023-10-30T10:57:51.041Z,99267.91
2023-10-30T11:00:18.647Z,99261.41
2023-10-30T11:02:48.772Z,99256.16
2023-10-30T11:05:16.892Z,99262.69
2023-10-30T11:08:16.784Z,99256.16
2023-10-30T11:10:51.694Z,99264.34
2023-10-30T11:13:40.601Z,99259.06
2023-10-30T11:16:15.263Z,99257.59
2023-10-30T11:18:42.856Z,99257.25
2023-10-30T11:21:17.324Z,99250.94
2023-10-30T11:23:48.705Z,99252.84
2023-10-30T11:26:31.570Z,99243.84
2023-10-30T11:28:59.118Z,99238.97
2023-10-30T11:31:34.255Z,99241.94
2023-10-30T11:34:13.005Z,99234.56
2023-10-30T11:36:40.958Z,99232.94
2023-10-30T11:39:12.297Z,99235.66
2023-10-30T11:41:42.039Z,99232.94
2023-10-30T11:44:13.427Z,99235.44
2023-10-30T11:46:48.507Z,99225.56
2023-10-30T11:49:16.431Z,99229.13
2023-10-30T11:51:46.013Z,99222.84
2023-10-30T11:54:14.030Z,99208.41
2023-10-30T11:56:47.891Z,99201.03
2023-10-30T11:59:16.370Z,99206.25
2023-10-30T12:01:44.648Z,99215.50
2023-10-30T12:04:12.537Z,99207.31
2023-10-30T12:06:41.591Z,99200.81
2023-10-30T12:09:09.057Z,99204.34
2023-10-30T12:11:36.764Z,99196.19
2023-10-30T12:14:06.111Z,99198.91
2023-10-30T12:16:37.074Z,99192.63
2023-10-30T12:19:05.201Z,99186.09
2023-10-30T12:21:32.741Z,99190.50
2023-10-30T12:24:00.621Z,99188.00
2023-10-30T12:26:28.870Z,99188.81
2023-10-30T12:29:02.241Z,99174.38
2023-10-30T12:31:30.598Z,99197.00
2023-10-30T12:34:15.689Z,99187.78
2023-10-30T12:36:43.393Z,99174.97
2023-10-30T12:39:18.292Z,99172.47
2023-10-30T12:41:50.627Z,99163.47
2023-10-30T12:44:18.692Z,99164.28
2023-10-30T12:46:46.813Z,99171.63
2023-10-30T12:49:15.083Z,99184.19
2023-10-30T12:51:43.393Z,99164.28
2023-10-30T12:54:11.788Z,99158.00
2023-10-30T12:56:39.271Z,99155.28
2023-10-30T12:59:07.444Z,99151.47
2023-10-30T13:01:44.895Z,99157.78
2023-10-30T13:04:26.855Z,99144.16
2023-10-30T13:06:56.481Z,99152.31
2023-10-30T13:09:25.302Z,99162.37
2023-10-30T13:11:53.050Z,99151.47
2023-10-30T13:14:22.312Z,99146.34
2023-10-30T13:16:49.901Z,99150.50
2023-10-30T13:19:17.413Z,99160.81
2023-10-30T13:21:45.599Z,99153.97
2023-10-30T13:24:13.398Z,99151.47
2023-10-30T13:26:40.956Z,99149.59
2023-10-30T13:29:08.689Z,99147.91
2023-10-30T13:31:36.170Z,99137.00
2023-10-30T13:34:04.428Z,99138.91
2023-10-30T13:36:32.319Z,99128.84
2023-10-30T13:38:59.815Z,99126.94
2023-10-30T13:41:27.295Z,99130.75
2023-10-30T13:43:55.155Z,99134.28
2023-10-30T13:46:23.142Z,99135.38
2023-10-30T13:48:50.658Z,99143.56
2023-10-30T13:51:18.451Z,99132.37
2023-10-30T13:53:45.974Z,99133.25
2023-10-30T13:56:13.402Z,99126.94
2023-10-30T13:58:41.156Z,99122.56
2023-10-30T14:01:10.040Z,99128.84
2023-10-30T14:03:37.876Z,99128.00
2023-10-30T14:06:05.638Z,99120.66
2023-10-30T14:08:33.421Z,99134.28
2023-10-30T14:11:01.125Z,99123.38
2023-10-30T14:13:28.635Z,99122.34
2023-10-30T14:15:56.400Z,99126.69
2023-10-30T14:18:24.231Z,99129.66
2023-10-30T14:20:51.679Z,99122.34
2023-10-30T14:23:19.652Z,99129.44
2023-10-30T14:25:47.438Z,99123.16
2023-10-30T14:28:15.081Z,99132.97
2023-10-30T14:30:42.675Z,99127.53
2023-10-30T14:33:12.429Z,99126.44
2023-10-30T14:35:39.973Z,99128.91
2023-10-30T14:38:07.469Z,99131.41
2023-10-30T14:40:35.205Z,99125.13
2023-10-30T14:43:02.711Z,99128.91
2023-10-30T14:45:30.281Z,99127.88
2023-10-30T14:47:58.017Z,99127.03
2023-10-30T14:50:25.501Z,99121.59
2023-10-30T14:52:52.980Z,99124.31
2023-10-30T14:55:20.736Z,99116.94
2023-10-30T14:57:48.341Z,99113.97
2023-10-30T15:00:16.090Z,99108.78
2023-10-30T15:02:45.559Z,99105.22
2023-10-30T15:05:14.116Z,99103.31
2023-10-30T15:07:41.698Z,99108.50
2023-10-30T15:10:09.669Z,99101.75
2023-10-30T15:12:37.223Z,99104.69
2023-10-30T15:15:05.588Z,99103.06
2023-10-30T15:17:36.499Z,99111.25
2023-10-30T15:20:05.720Z,99121.31
2023-10-30T15:22:33.551Z,99119.41
2023-10-30T15:25:01.088Z,99117.50
2023-10-30T15:27:30.226Z,99115.88
2023-10-30T15:29:58.635Z,99121.31
2023-10-30T15:32:26.125Z,99117.78
2023-10-30T15:34:54.101Z,99124.87
2023-10-30T15:37:21.883Z,99124.31
2023-10-30T15:39:49.362Z,99118.00
2023-10-30T15:42:16.867Z,99113.41
2023-10-30T15:44:44.798Z,99125.13
2023-10-30T15:47:24.275Z,99123.47
2023-10-30T15:49:53.835Z,99131.63
2023-10-30T15:57:26.233Z,99122.06
2023-10-30T15:59:53.975Z,99134.63
2023-10-30T16:02:21.449Z,99129.16
2023-10-30T16:07:20.191Z,99113.91
2023-10-30T16:09:49.360Z,99108.44
2023-10-30T16:12:17.514Z,99115.78
2023-10-30T16:14:44.985Z,99119.34
2023-10-30T16:19:44.195Z,99128.34
2023-10-30T16:22:12.646Z,99123.16
2023-10-30T16:24:40.123Z,99121.25
2023-10-30T16:27:07.919Z,99123.16
2023-10-30T16:29:37.432Z,99120.44
2023-10-30T16:32:05.443Z,99127.53
2023-10-30T16:34:33.961Z,99124.22
2023-10-30T16:37:03.128Z,99116.87
2023-10-30T16:39:30.714Z,99112.47
2023-10-30T16:41:58.519Z,99107.34
2023-10-30T16:44:26.141Z,99102.37
2023-10-30T16:46:53.768Z,99114.97
2023-10-30T16:49:21.597Z,99112.47
2023-10-30T16:51:49.131Z,99108.69
2023-10-30T16:54:17.034Z,99113.28
2023-10-30T16:56:44.710Z,99109.75
2023-10-30T16:59:12.168Z,99098.84
2023-10-30T17:01:39.697Z,99105.97
2023-10-30T17:04:08.027Z,99107.03
2023-10-30T17:06:35.578Z,99098.03
2023-10-30T17:09:03.037Z,99107.03
2023-10-30T17:11:31.819Z,99112.47
2023-10-30T17:13:59.409Z,99106.19
2023-10-30T17:16:27.026Z,99107.84
2023-10-30T17:18:54.871Z,99110.56
2023-10-30T17:21:22.398Z,99118.75
2023-10-30T17:23:50.014Z,99116.03
2023-10-30T17:26:17.944Z,99120.66
2023-10-30T17:28:45.528Z,99120.66
2023-10-30T17:31:13.060Z,99118.75
2023-10-30T17:33:40.856Z,99116.03
2023-10-30T17:36:08.899Z,99108.69
2023-10-30T17:38:37.354Z,99117.94
2023-10-30T17:41:05.442Z,99114.97
2023-10-30T17:43:33.227Z,99110.91
2023-10-30T17:46:00.919Z,99117.50
2023-10-30T17:48:28.917Z,99105.59
2023-10-30T17:50:57.060Z,99111.38
2023-10-30T17:53:34.639Z,99112.28
2023-10-30T17:56:02.756Z,99112.03
2023-10-30T17:58:31.105Z,99106.81
2023-10-30T18:00:59.547Z,99107.34
2023-10-30T18:03:28.689Z,99101.06
2023-10-30T18:05:57.102Z,99093.44
2023-10-30T18:08:26.466Z,99091.28
2023-10-30T18:10:55.230Z,99098.72
2023-10-30T18:13:23.897Z,99099.84
2023-10-30T18:15:53.645Z,99095.41
2023-10-30T18:18:21.868Z,99088.66
2023-10-30T18:20:50.035Z,99090.91
2023-10-30T18:23:18.450Z,99084.50
2023-10-30T18:25:48.038Z,99088.81
2023-10-30T18:28:18.122Z,99080.28
2023-10-30T18:30:46.224Z,99086.00
2023-10-30T18:33:14.876Z,99078.56
2023-10-30T18:35:45.930Z,99078.16
2023-10-30T18:38:16.234Z,99074.84
2023-10-30T18:40:45.637Z,99078.41
2023-10-30T18:43:16.837Z,99081.72
2023-10-30T18:45:50.090Z,99088.88
2023-10-30T18:48:18.902Z,99078.78
2023-10-30T18:50:49.778Z,99082.34
2023-10-30T18:53:18.983Z,99071.69
2023-10-30T18:55:47.546Z,99069.22
2023-10-30T18:58:16.757Z,99070.31
2023-10-30T19:00:45.612Z,99083.94
2023-10-30T19:03:13.452Z,99075.50
2023-10-30T19:05:41.655Z,99067.31
2023-10-30T19:08:11.888Z,99064.31
2023-10-30T19:10:42.455Z,99066.13
2023-10-30T19:13:11.872Z,99054.56
2023-10-30T19:15:43.677Z,99046.88
2023-10-30T19:18:14.227Z,99049.06
2023-10-30T19:20:42.314Z,99037.31
2023-10-30T19:23:10.937Z,99031.59
2023-10-30T19:25:40.837Z,99037.31
2023-10-30T19:28:09.679Z,99040.59
2023-10-30T19:30:40.210Z,99036.56
2023-10-30T19:33:10.546Z,99037.94
2023-10-30T19:35:39.398Z,99034.38
2023-10-30T19:38:11.440Z,99030.06
2023-10-30T19:40:43.597Z,99030.06
2023-10-30T19:43:11.559Z,99034.44
2023-10-30T19:45:41.260Z,99038.03
2023-10-30T19:48:12.753Z,99036.34
2023-10-30T19:50:42.488Z,99037.19
2023-10-30T19:53:11.606Z,99039.91
2023-10-30T19:55:40.482Z,99036.34
2023-10-30T19:58:09.056Z,99032.81
2023-10-30T20:00:38.524Z,99020.81
2023-10-30T20:03:07.790Z,99006.12
2023-10-30T20:05:36.475Z,99008.03
2023-10-30T20:08:04.445Z,98997.34
2023-10-30T20:10:37.722Z,99000.34
2023-10-30T20:13:08.072Z,99013.16
2023-10-30T20:15:37.308Z,99002.78
2023-10-30T20:18:05.734Z,99012.38
2023-10-30T20:20:33.944Z,99003.37
2023-10-30T20:23:03.228Z,99003.94
2023-10-30T20:25:33.287Z,98999.84
2023-10-30T20:28:02.040Z,98998.16
2023-10-30T20:30:31.160Z,98987.25
2023-10-30T20:32:59.277Z,98982.63
2023-10-30T20:35:27.838Z,98976.09
2023-10-30T20:37:56.136Z,98968.75
2023-10-30T20:40:24.628Z,98971.69
2023-10-30T20:42:52.848Z,98975.84
2023-10-30T20:45:21.116Z,98964.09
2023-10-30T20:47:53.133Z,98961.38
2023-10-30T20:50:21.965Z,98948.81
2023-10-30T20:52:51.195Z,98937.09
2023-10-30T20:55:19.304Z,98930.53
2023-10-30T20:57:47.739Z,98943.91
2023-10-30T21:00:17.065Z,98943.09
2023-10-30T21:02:47.781Z,98936.81
2023-10-30T21:05:15.851Z,98925.63
2023-10-30T21:07:43.662Z,98926.47
2023-10-30T21:10:11.141Z,98911.19
2023-10-30T21:12:38.848Z,98925.63
2023-10-30T21:15:08.986Z,98912.81
2023-10-30T21:17:36.673Z,98913.63
2023-10-30T21:20:06.032Z,98914.50
2023-10-30T21:22:34.779Z,98903.56
2023-10-30T21:25:02.261Z,98894.31
2023-10-30T21:27:30.400Z,98889.94
2023-10-30T21:29:57.872Z,98891.81
2023-10-30T21:32:27.476Z,98889.94
2023-10-30T21:34:55.709Z,98880.09
2023-10-30T21:37:23.611Z,98878.16
2023-10-30T21:39:51.360Z,98877.34
2023-10-30T21:42:19.082Z,98867.25
2023-10-30T21:44:46.953Z,98868.13
2023-10-30T21:47:14.734Z,98865.37
2023-10-30T21:49:42.515Z,98847.34
2023-10-30T21:52:09.959Z,98859.06
2023-10-30T21:54:37.450Z,98856.63
2023-10-30T21:57:05.200Z,98866.44
2023-10-30T21:59:32.715Z,98855.53
2023-10-30T22:02:00.280Z,98851.16
2023-10-30T22:04:28.188Z,98843.78
2023-10-30T22:06:55.712Z,98851.16
2023-10-30T22:09:23.231Z,98847.59
2023-10-30T22:11:51.295Z,98844.88
2023-10-30T22:14:18.765Z,98852.25
2023-10-30T22:16:46.337Z,98827.69
2023-10-30T22:19:14.341Z,98837.78
2023-10-30T22:21:42.394Z,98840.50
2023-10-30T22:24:10.044Z,98832.31
2023-10-30T22:26:37.832Z,98827.97
2023-10-30T22:29:05.324Z,98836.16
2023-10-30T22:31:33.011Z,98825.22
2023-10-30T22:34:00.972Z,98817.28
2023-10-30T22:36:28.421Z,98827.37
2023-10-30T22:38:55.892Z,98809.09
2023-10-30T22:41:23.923Z,98810.19
2023-10-30T22:43:54.194Z,98794.31
2023-10-30T22:46:22.174Z,98814.50
2023-10-30T22:48:51.488Z,98802.22
2023-10-30T22:51:18.942Z,98802.47
2023-10-30T22:53:46.432Z,98795.94
2023-10-30T22:56:14.180Z,98794.56
2023-10-30T22:58:44.183Z,98796.47
2023-10-30T23:01:11.973Z,98794.56
2023-10-30T23:03:39.956Z,98798.66
2023-10-30T23:06:31.176Z,98805.78
2023-10-30T23:08:58.939Z,98793.50
2023-10-30T23:11:26.482Z,98794.09
2023-10-30T23:13:53.975Z,98794.88
2023-10-30T23:16:21.874Z,98786.66
2023-10-30T23:18:49.351Z,98790.69
2023-10-30T23:21:16.874Z,98786.56
2023-10-30T23:23:45.015Z,98786.84
2023-10-30T23:26:12.532Z,98784.09
2023-10-30T23:28:40.065Z,98786.00
2023-10-30T23:31:07.991Z,98779.75
2023-10-30T23:33:35.429Z,98782.19
2023-10-30T23:36:03.176Z,98781.37
2023-10-30T23:38:31.498Z,98787.91
2023-10-30T23:40:59.020Z,98762.56
2023-10-30T23:43:27.461Z,98756.28
2023-10-30T23:45:55.157Z,98757.09
2023-10-30T23:48:22.711Z,98748.94
2023-10-30T23:50:50.182Z,98742.94
2023-10-30T23:53:17.995Z,98740.22
2023-10-30T23:55:46.152Z,98732.03
2023-10-30T23:58:13.963Z,98729.28
